レシフェ の空港の天気 - METARとTAF

レシフェ・グアララペス国際空港 ( SBRF / REC ) - ブラジル ペルナンブーコ州レシフェ
飛行場実況気象(Metar)
観測時間11/30 15:00 BRT (11/30 18:00 UTC)
風向・風速東北東 2m/s
視程10km以上
天気現象
全天の4割程度の雲 雲底高度 700m
全天の8割程度の雲 雲底高度 2130m
気温27℃
湿度74%
気圧1008hPa
METARSBRF 301800Z 07004KT 030V100 9999 SCT023 BKN070 27/22 Q1008
過去の天気等 Google飛行場航空写真 Wunderground天気予報

過去48時間のMETAR

飛行場予報(TAF)
発表時間: 11/30 12:00 BRT (11/30 15:00 UTC)
予報対象時間: 30日15時 BRT ~ 1日15時 BRT
風向・風速北東 5m/s
視程8000m
全天の4割程度の雲 雲底高度 760m
30日16時 BRT ~ 30日20時 BRT に 確率 30% で一時的に
視程4000m
天気現象しゅう雨
全天の8割程度の雲 雲底高度 400m
少しの塔状積雲 雲底高度 760m
30日21時 BRT ~ 30日23時 BRT に徐々に
風向・風速北西 3m/s
全天の8割程度の雲 雲底高度 760m
1日9時 BRT ~ 1日11時 BRT に徐々に
風向・風速東北東 4m/s
1日13時 BRT ~ 1日15時 BRT に 確率 30% で一時的に
視程4000m
天気現象しゅう雨
全天の8割程度の雲 雲底高度 400m
少しの塔状積雲 雲底高度 760m
TAF SBRF 301500Z 3018/0118 05010KT 8000 SCT025 TN25/0108Z TX28/0117Z
PROB30 TEMPO 3019/3023 4000 SHRA BKN013 FEW025TCU
BECMG 0100/0102 32005KT BKN025
BECMG 0112/0114 06008KT
PROB30 TEMPO 0116/0118 4000 SHRA BKN013 FEW025TCU RMK PGY